sensor_id;sensor_type;location;lat;lon;timestamp;P1;durP1;ratioP1;P2;durP2;ratioP2
34737;SDS011;39910;47.154;27.614;2022-08-30T00:01:03;9.52;;;9.13;;
34737;SDS011;39910;47.154;27.614;2022-08-30T00:03:43;9.70;;;9.30;;
34737;SDS011;39910;47.154;27.614;2022-08-30T00:06:10;9.95;;;9.55;;
34737;SDS011;39910;47.154;27.614;2022-08-30T00:08:37;9.30;;;8.90;;
34737;SDS011;39910;47.154;27.614;2022-08-30T00:11:05;9.40;;;9.00;;
34737;SDS011;39910;47.154;27.614;2022-08-30T00:13:34;9.52;;;9.13;;
34737;SDS011;39910;47.154;27.614;2022-08-30T00:16:00;9.55;;;9.15;;
34737;SDS011;39910;47.154;27.614;2022-08-30T00:18:26;9.75;;;9.35;;
34737;SDS011;39910;47.154;27.614;2022-08-30T00:20:52;9.90;;;9.50;;
34737;SDS011;39910;47.154;27.614;2022-08-30T00:23:20;9.43;;;9.02;;
34737;SDS011;39910;47.154;27.614;2022-08-30T00:25:46;9.60;;;9.20;;
34737;SDS011;39910;47.154;27.614;2022-08-30T00:28:12;9.70;;;9.30;;
34737;SDS011;39910;47.154;27.614;2022-08-30T00:30:38;10.23;;;9.73;;
34737;SDS011;39910;47.154;27.614;2022-08-30T00:33:05;9.77;;;9.38;;
34737;SDS011;39910;47.154;27.614;2022-08-30T00:35:30;9.68;;;9.27;;
34737;SDS011;39910;47.154;27.614;2022-08-30T00:37:56;9.65;;;9.25;;
34737;SDS011;39910;47.154;27.614;2022-08-30T00:40:22;9.80;;;9.40;;
34737;SDS011;39910;47.154;27.614;2022-08-30T00:42:48;9.48;;;9.07;;
34737;SDS011;39910;47.154;27.614;2022-08-30T00:45:18;9.65;;;9.25;;
34737;SDS011;39910;47.154;27.614;2022-08-30T00:47:48;9.85;;;9.45;;
34737;SDS011;39910;47.154;27.614;2022-08-30T00:50:14;9.38;;;8.98;;
34737;SDS011;39910;47.154;27.614;2022-08-30T00:52:44;9.90;;;9.50;;
34737;SDS011;39910;47.154;27.614;2022-08-30T00:55:12;9.80;;;9.40;;
34737;SDS011;39910;47.154;27.614;2022-08-30T00:57:41;9.82;;;9.43;;
34737;SDS011;39910;47.154;27.614;2022-08-30T01:00:08;9.70;;;9.30;;
34737;SDS011;39910;47.154;27.614;2022-08-30T01:02:34;10.00;;;9.60;;
34737;SDS011;39910;47.154;27.614;2022-08-30T01:05:00;9.73;;;9.32;;
34737;SDS011;39910;47.154;27.614;2022-08-30T01:07:28;9.60;;;9.20;;
34737;SDS011;39910;47.154;27.614;2022-08-30T01:09:53;9.68;;;9.27;;
34737;SDS011;39910;47.154;27.614;2022-08-30T01:12:19;9.70;;;9.30;;
34737;SDS011;39910;47.154;27.614;2022-08-30T01:14:45;9.80;;;9.40;;
34737;SDS011;39910;47.154;27.614;2022-08-30T01:17:10;9.73;;;9.32;;
34737;SDS011;39910;47.154;27.614;2022-08-30T01:19:48;9.68;;;9.27;;
34737;SDS011;39910;47.154;27.614;2022-08-30T01:22:32;9.57;;;9.18;;
34737;SDS011;39910;47.154;27.614;2022-08-30T01:25:07;9.65;;;9.25;;
34737;SDS011;39910;47.154;27.614;2022-08-30T01:27:36;9.50;;;9.10;;
34737;SDS011;39910;47.154;27.614;2022-08-30T01:30:06;9.68;;;9.27;;
34737;SDS011;39910;47.154;27.614;2022-08-30T01:32:37;9.52;;;9.13;;
34737;SDS011;39910;47.154;27.614;2022-08-30T01:35:04;9.68;;;9.27;;
34737;SDS011;39910;47.154;27.614;2022-08-30T01:37:30;9.70;;;9.30;;
34737;SDS011;39910;47.154;27.614;2022-08-30T01:39:58;10.05;;;9.65;;
34737;SDS011;39910;47.154;27.614;2022-08-30T01:42:24;9.80;;;9.40;;
34737;SDS011;39910;47.154;27.614;2022-08-30T01:44:49;9.60;;;9.20;;
34737;SDS011;39910;47.154;27.614;2022-08-30T01:47:15;9.65;;;9.25;;
34737;SDS011;39910;47.154;27.614;2022-08-30T01:49:43;9.60;;;9.20;;
34737;SDS011;39910;47.154;27.614;2022-08-30T01:52:09;9.57;;;9.18;;
34737;SDS011;39910;47.154;27.614;2022-08-30T01:54:36;9.48;;;9.07;;
34737;SDS011;39910;47.154;27.614;2022-08-30T01:57:03;9.50;;;9.10;;
34737;SDS011;39910;47.154;27.614;2022-08-30T01:59:34;9.38;;;8.98;;
34737;SDS011;39910;47.154;27.614;2022-08-30T02:02:00;9.68;;;9.27;;
34737;SDS011;39910;47.154;27.614;2022-08-30T02:04:26;9.70;;;9.30;;
34737;SDS011;39910;47.154;27.614;2022-08-30T02:06:52;9.90;;;9.50;;
34737;SDS011;39910;47.154;27.614;2022-08-30T02:09:18;9.50;;;9.10;;
34737;SDS011;39910;47.154;27.614;2022-08-30T02:11:43;9.82;;;9.43;;
34737;SDS011;39910;47.154;27.614;2022-08-30T02:14:09;9.63;;;9.23;;
34737;SDS011;39910;47.154;27.614;2022-08-30T02:16:35;9.70;;;9.30;;
34737;SDS011;39910;47.154;27.614;2022-08-30T02:19:01;9.80;;;9.40;;
34737;SDS011;39910;47.154;27.614;2022-08-30T02:21:27;9.75;;;9.35;;
34737;SDS011;39910;47.154;27.614;2022-08-30T02:23:52;9.57;;;9.18;;
34737;SDS011;39910;47.154;27.614;2022-08-30T02:26:19;9.50;;;9.10;;
34737;SDS011;39910;47.154;27.614;2022-08-30T02:28:45;9.65;;;9.25;;
34737;SDS011;39910;47.154;27.614;2022-08-30T02:31:12;9.60;;;9.20;;
34737;SDS011;39910;47.154;27.614;2022-08-30T02:33:37;9.70;;;9.30;;
34737;SDS011;39910;47.154;27.614;2022-08-30T02:36:06;10.15;;;9.70;;
34737;SDS011;39910;47.154;27.614;2022-08-30T02:38:32;9.60;;;9.20;;
34737;SDS011;39910;47.154;27.614;2022-08-30T02:40:58;9.65;;;9.25;;
34737;SDS011;39910;47.154;27.614;2022-08-30T02:43:24;9.38;;;8.98;;
34737;SDS011;39910;47.154;27.614;2022-08-30T02:45:50;9.57;;;9.18;;
34737;SDS011;39910;47.154;27.614;2022-08-30T02:48:16;9.82;;;9.43;;
34737;SDS011;39910;47.154;27.614;2022-08-30T02:50:43;9.45;;;9.05;;
34737;SDS011;39910;47.154;27.614;2022-08-30T02:53:10;9.52;;;9.13;;
34737;SDS011;39910;47.154;27.614;2022-08-30T02:55:35;9.30;;;8.90;;
34737;SDS011;39910;47.154;27.614;2022-08-30T02:58:01;9.35;;;8.95;;
34737;SDS011;39910;47.154;27.614;2022-08-30T03:00:27;9.68;;;9.27;;
34737;SDS011;39910;47.154;27.614;2022-08-30T03:02:52;9.43;;;9.02;;
34737;SDS011;39910;47.154;27.614;2022-08-30T03:05:18;9.77;;;9.38;;
34737;SDS011;39910;47.154;27.614;2022-08-30T03:07:44;9.85;;;9.45;;
34737;SDS011;39910;47.154;27.614;2022-08-30T03:10:11;9.75;;;9.35;;
34737;SDS011;39910;47.154;27.614;2022-08-30T03:12:38;9.90;;;9.50;;
34737;SDS011;39910;47.154;27.614;2022-08-30T03:15:05;9.68;;;9.27;;
34737;SDS011;39910;47.154;27.614;2022-08-30T03:17:32;9.65;;;9.25;;
34737;SDS011;39910;47.154;27.614;2022-08-30T03:19:57;9.80;;;9.40;;
34737;SDS011;39910;47.154;27.614;2022-08-30T03:22:25;9.88;;;9.48;;
34737;SDS011;39910;47.154;27.614;2022-08-30T03:24:50;9.40;;;9.00;;
34737;SDS011;39910;47.154;27.614;2022-08-30T03:27:16;9.82;;;9.43;;
34737;SDS011;39910;47.154;27.614;2022-08-30T03:29:41;9.60;;;9.20;;
34737;SDS011;39910;47.154;27.614;2022-08-30T03:32:07;9.40;;;9.00;;
34737;SDS011;39910;47.154;27.614;2022-08-30T03:34:32;9.70;;;9.30;;
34737;SDS011;39910;47.154;27.614;2022-08-30T03:36:58;9.40;;;9.00;;
34737;SDS011;39910;47.154;27.614;2022-08-30T03:39:25;9.55;;;9.15;;
34737;SDS011;39910;47.154;27.614;2022-08-30T03:41:51;9.80;;;9.40;;
34737;SDS011;39910;47.154;27.614;2022-08-30T03:44:16;9.75;;;9.35;;
34737;SDS011;39910;47.154;27.614;2022-08-30T03:46:42;9.70;;;9.30;;
34737;SDS011;39910;47.154;27.614;2022-08-30T03:49:07;9.65;;;9.25;;
34737;SDS011;39910;47.154;27.614;2022-08-30T03:51:33;9.77;;;9.38;;
34737;SDS011;39910;47.154;27.614;2022-08-30T03:53:59;9.20;;;8.80;;
34737;SDS011;39910;47.154;27.614;2022-08-30T03:56:25;9.60;;;9.20;;
34737;SDS011;39910;47.154;27.614;2022-08-30T03:58:51;9.57;;;9.18;;
34737;SDS011;39910;47.154;27.614;2022-08-30T04:01:17;9.50;;;9.10;;
34737;SDS011;39910;47.154;27.614;2022-08-30T04:03:42;9.60;;;9.20;;
34737;SDS011;39910;47.154;27.614;2022-08-30T04:06:08;9.43;;;9.02;;
34737;SDS011;39910;47.154;27.614;2022-08-30T04:08:33;9.52;;;9.13;;
34737;SDS011;39910;47.154;27.614;2022-08-30T04:10:59;9.60;;;9.20;;
34737;SDS011;39910;47.154;27.614;2022-08-30T04:13:26;9.98;;;9.57;;
34737;SDS011;39910;47.154;27.614;2022-08-30T04:15:53;9.70;;;9.30;;
34737;SDS011;39910;47.154;27.614;2022-08-30T04:18:19;9.70;;;9.30;;
34737;SDS011;39910;47.154;27.614;2022-08-30T04:20:45;9.88;;;9.48;;
34737;SDS011;39910;47.154;27.614;2022-08-30T04:23:11;9.80;;;9.40;;
34737;SDS011;39910;47.154;27.614;2022-08-30T04:25:38;9.45;;;9.05;;
34737;SDS011;39910;47.154;27.614;2022-08-30T04:28:05;9.55;;;9.15;;
34737;SDS011;39910;47.154;27.614;2022-08-30T04:30:33;9.75;;;9.35;;
34737;SDS011;39910;47.154;27.614;2022-08-30T04:32:58;9.73;;;9.32;;
34737;SDS011;39910;47.154;27.614;2022-08-30T04:35:24;9.93;;;9.52;;
34737;SDS011;39910;47.154;27.614;2022-08-30T04:37:50;9.60;;;9.20;;
34737;SDS011;39910;47.154;27.614;2022-08-30T04:40:16;9.73;;;9.32;;
34737;SDS011;39910;47.154;27.614;2022-08-30T04:42:42;9.85;;;9.45;;
34737;SDS011;39910;47.154;27.614;2022-08-30T04:45:09;9.63;;;9.23;;
34737;SDS011;39910;47.154;27.614;2022-08-30T04:47:38;10.15;;;9.75;;
34737;SDS011;39910;47.154;27.614;2022-08-30T04:50:05;9.90;;;9.50;;
34737;SDS011;39910;47.154;27.614;2022-08-30T04:52:31;9.63;;;9.23;;
34737;SDS011;39910;47.154;27.614;2022-08-30T04:54:57;9.70;;;9.30;;
34737;SDS011;39910;47.154;27.614;2022-08-30T04:57:23;9.52;;;9.13;;
34737;SDS011;39910;47.154;27.614;2022-08-30T04:59:50;10.00;;;9.60;;
34737;SDS011;39910;47.154;27.614;2022-08-30T05:02:15;10.13;;;9.73;;
34737;SDS011;39910;47.154;27.614;2022-08-30T05:04:41;9.90;;;9.50;;
34737;SDS011;39910;47.154;27.614;2022-08-30T05:07:27;10.02;;;9.63;;
34737;SDS011;39910;47.154;27.614;2022-08-30T05:09:53;9.70;;;9.30;;
34737;SDS011;39910;47.154;27.614;2022-08-30T05:12:18;9.85;;;9.45;;
34737;SDS011;39910;47.154;27.614;2022-08-30T05:14:44;10.10;;;9.70;;
34737;SDS011;39910;47.154;27.614;2022-08-30T05:17:10;9.70;;;9.30;;
34737;SDS011;39910;47.154;27.614;2022-08-30T05:19:35;9.75;;;9.35;;
34737;SDS011;39910;47.154;27.614;2022-08-30T05:22:00;10.10;;;9.70;;
34737;SDS011;39910;47.154;27.614;2022-08-30T05:24:26;9.88;;;9.48;;
34737;SDS011;39910;47.154;27.614;2022-08-30T05:26:51;9.70;;;9.30;;
34737;SDS011;39910;47.154;27.614;2022-08-30T05:29:17;9.90;;;9.50;;
34737;SDS011;39910;47.154;27.614;2022-08-30T05:31:42;9.65;;;9.25;;
34737;SDS011;39910;47.154;27.614;2022-08-30T05:34:11;9.60;;;9.20;;
34737;SDS011;39910;47.154;27.614;2022-08-30T05:36:37;9.88;;;9.48;;
34737;SDS011;39910;47.154;27.614;2022-08-30T05:39:03;9.80;;;9.40;;
34737;SDS011;39910;47.154;27.614;2022-08-30T05:41:30;9.82;;;9.43;;
34737;SDS011;39910;47.154;27.614;2022-08-30T05:43:57;9.77;;;9.38;;
34737;SDS011;39910;47.154;27.614;2022-08-30T05:46:24;9.80;;;9.40;;
34737;SDS011;39910;47.154;27.614;2022-08-30T05:48:53;9.82;;;9.43;;
34737;SDS011;39910;47.154;27.614;2022-08-30T05:51:20;9.77;;;9.38;;
34737;SDS011;39910;47.154;27.614;2022-08-30T05:53:48;9.52;;;9.13;;
34737;SDS011;39910;47.154;27.614;2022-08-30T05:56:17;9.85;;;9.45;;
34737;SDS011;39910;47.154;27.614;2022-08-30T05:58:45;9.70;;;9.30;;
34737;SDS011;39910;47.154;27.614;2022-08-30T06:01:19;9.85;;;9.45;;
34737;SDS011;39910;47.154;27.614;2022-08-30T06:03:44;9.70;;;9.30;;
34737;SDS011;39910;47.154;27.614;2022-08-30T06:06:10;9.60;;;9.20;;
34737;SDS011;39910;47.154;27.614;2022-08-30T06:08:35;9.40;;;9.00;;
34737;SDS011;39910;47.154;27.614;2022-08-30T06:11:01;9.43;;;9.02;;
34737;SDS011;39910;47.154;27.614;2022-08-30T06:13:26;9.35;;;8.95;;
34737;SDS011;39910;47.154;27.614;2022-08-30T06:15:52;9.70;;;9.30;;
34737;SDS011;39910;47.154;27.614;2022-08-30T06:18:17;9.65;;;9.25;;
34737;SDS011;39910;47.154;27.614;2022-08-30T06:20:43;10.00;;;9.60;;
34737;SDS011;39910;47.154;27.614;2022-08-30T06:23:11;9.80;;;9.40;;
34737;SDS011;39910;47.154;27.614;2022-08-30T06:25:38;10.02;;;9.63;;
34737;SDS011;39910;47.154;27.614;2022-08-30T06:28:06;9.82;;;9.43;;
34737;SDS011;39910;47.154;27.614;2022-08-30T06:30:32;9.85;;;9.45;;
34737;SDS011;39910;47.154;27.614;2022-08-30T06:32:58;10.05;;;9.65;;
34737;SDS011;39910;47.154;27.614;2022-08-30T06:35:24;9.80;;;9.40;;
34737;SDS011;39910;47.154;27.614;2022-08-30T06:37:51;9.80;;;9.40;;
34737;SDS011;39910;47.154;27.614;2022-08-30T06:40:16;9.60;;;9.20;;
34737;SDS011;39910;47.154;27.614;2022-08-30T06:42:44;9.88;;;9.48;;
34737;SDS011;39910;47.154;27.614;2022-08-30T06:45:10;9.93;;;9.52;;
34737;SDS011;39910;47.154;27.614;2022-08-30T06:47:35;10.02;;;9.63;;
34737;SDS011;39910;47.154;27.614;2022-08-30T06:50:01;9.70;;;9.30;;
34737;SDS011;39910;47.154;27.614;2022-08-30T06:52:27;9.57;;;9.18;;
34737;SDS011;39910;47.154;27.614;2022-08-30T06:54:53;9.77;;;9.38;;
34737;SDS011;39910;47.154;27.614;2022-08-30T06:57:20;9.65;;;9.25;;
34737;SDS011;39910;47.154;27.614;2022-08-30T06:59:45;10.13;;;9.73;;
34737;SDS011;39910;47.154;27.614;2022-08-30T07:02:11;10.02;;;9.52;;
34737;SDS011;39910;47.154;27.614;2022-08-30T07:04:36;9.73;;;9.32;;
34737;SDS011;39910;47.154;27.614;2022-08-30T07:07:02;9.82;;;9.43;;
34737;SDS011;39910;47.154;27.614;2022-08-30T07:09:28;10.07;;;9.68;;
34737;SDS011;39910;47.154;27.614;2022-08-30T07:11:54;9.63;;;9.23;;
34737;SDS011;39910;47.154;27.614;2022-08-30T07:14:20;10.00;;;9.60;;
34737;SDS011;39910;47.154;27.614;2022-08-30T07:16:46;10.00;;;9.60;;
34737;SDS011;39910;47.154;27.614;2022-08-30T07:19:12;9.93;;;9.52;;
34737;SDS011;39910;47.154;27.614;2022-08-30T07:21:38;10.27;;;9.88;;
34737;SDS011;39910;47.154;27.614;2022-08-30T07:24:08;10.23;;;9.82;;
34737;SDS011;39910;47.154;27.614;2022-08-30T07:26:40;10.02;;;9.63;;
34737;SDS011;39910;47.154;27.614;2022-08-30T07:29:10;9.93;;;9.52;;
34737;SDS011;39910;47.154;27.614;2022-08-30T07:31:37;9.75;;;9.35;;
34737;SDS011;39910;47.154;27.614;2022-08-30T07:34:03;10.02;;;9.63;;
34737;SDS011;39910;47.154;27.614;2022-08-30T07:36:29;10.05;;;9.65;;
34737;SDS011;39910;47.154;27.614;2022-08-30T07:38:55;9.70;;;9.30;;
34737;SDS011;39910;47.154;27.614;2022-08-30T07:41:23;9.82;;;9.43;;
34737;SDS011;39910;47.154;27.614;2022-08-30T07:43:51;9.80;;;9.40;;
34737;SDS011;39910;47.154;27.614;2022-08-30T07:46:17;10.00;;;9.60;;
34737;SDS011;39910;47.154;27.614;2022-08-30T07:48:44;9.70;;;9.30;;
34737;SDS011;39910;47.154;27.614;2022-08-30T07:51:11;10.45;;;9.98;;
34737;SDS011;39910;47.154;27.614;2022-08-30T07:53:39;10.05;;;9.65;;
34737;SDS011;39910;47.154;27.614;2022-08-30T07:56:05;10.20;;;9.80;;
34737;SDS011;39910;47.154;27.614;2022-08-30T07:58:31;9.98;;;9.57;;
34737;SDS011;39910;47.154;27.614;2022-08-30T08:00:57;10.40;;;9.90;;
34737;SDS011;39910;47.154;27.614;2022-08-30T08:03:26;10.13;;;9.73;;
34737;SDS011;39910;47.154;27.614;2022-08-30T08:05:53;10.00;;;9.60;;
34737;SDS011;39910;47.154;27.614;2022-08-30T08:08:19;10.15;;;9.75;;
34737;SDS011;39910;47.154;27.614;2022-08-30T08:10:45;10.18;;;9.77;;
34737;SDS011;39910;47.154;27.614;2022-08-30T08:13:11;9.80;;;9.40;;
34737;SDS011;39910;47.154;27.614;2022-08-30T08:15:37;10.13;;;9.73;;
34737;SDS011;39910;47.154;27.614;2022-08-30T08:18:04;10.20;;;9.80;;
34737;SDS011;39910;47.154;27.614;2022-08-30T08:20:30;10.20;;;9.80;;
34737;SDS011;39910;47.154;27.614;2022-08-30T08:22:56;10.30;;;9.85;;
34737;SDS011;39910;47.154;27.614;2022-08-30T08:25:22;10.20;;;9.80;;
34737;SDS011;39910;47.154;27.614;2022-08-30T08:27:49;9.93;;;9.52;;
34737;SDS011;39910;47.154;27.614;2022-08-30T08:30:16;9.90;;;9.50;;
34737;SDS011;39910;47.154;27.614;2022-08-30T08:32:43;9.82;;;9.43;;
34737;SDS011;39910;47.154;27.614;2022-08-30T08:35:09;9.77;;;9.38;;
34737;SDS011;39910;47.154;27.614;2022-08-30T08:37:35;10.38;;;9.93;;
34737;SDS011;39910;47.154;27.614;2022-08-30T08:40:02;10.27;;;9.88;;
34737;SDS011;39910;47.154;27.614;2022-08-30T08:42:42;10.30;;;9.90;;
34737;SDS011;39910;47.154;27.614;2022-08-30T08:45:18;10.32;;;9.90;;
34737;SDS011;39910;47.154;27.614;2022-08-30T08:50:42;10.02;;;9.63;;
34737;SDS011;39910;47.154;27.614;2022-08-30T08:53:34;9.98;;;9.57;;
34737;SDS011;39910;47.154;27.614;2022-08-30T08:56:09;10.25;;;9.85;;
34737;SDS011;39910;47.154;27.614;2022-08-30T08:58:41;10.05;;;9.65;;
34737;SDS011;39910;47.154;27.614;2022-08-30T09:01:12;10.13;;;9.73;;
34737;SDS011;39910;47.154;27.614;2022-08-30T09:03:40;10.00;;;9.60;;
34737;SDS011;39910;47.154;27.614;2022-08-30T09:08:56;10.18;;;9.77;;
34737;SDS011;39910;47.154;27.614;2022-08-30T09:11:23;9.88;;;9.48;;
34737;SDS011;39910;47.154;27.614;2022-08-30T09:13:51;10.10;;;9.70;;
34737;SDS011;39910;47.154;27.614;2022-08-30T09:17:05;9.75;;;9.35;;
34737;SDS011;39910;47.154;27.614;2022-08-30T09:24:46;10.18;;;9.77;;
34737;SDS011;39910;47.154;27.614;2022-08-30T09:27:18;9.73;;;9.32;;
34737;SDS011;39910;47.154;27.614;2022-08-30T09:30:29;9.85;;;9.45;;
34737;SDS011;39910;47.154;27.614;2022-08-30T09:32:40;9.80;;;9.40;;
34737;SDS011;39910;47.154;27.614;2022-08-30T09:35:34;10.20;;;9.80;;
34737;SDS011;39910;47.154;27.614;2022-08-30T09:38:23;9.55;;;9.15;;
34737;SDS011;39910;47.154;27.614;2022-08-30T09:40:51;9.90;;;9.50;;
34737;SDS011;39910;47.154;27.614;2022-08-30T09:43:26;9.57;;;9.18;;
34737;SDS011;39910;47.154;27.614;2022-08-30T10:01:32;10.02;;;9.63;;
34737;SDS011;39910;47.154;27.614;2022-08-30T10:06:50;10.13;;;9.73;;
34737;SDS011;39910;47.154;27.614;2022-08-30T10:09:27;9.68;;;9.27;;
34737;SDS011;39910;47.154;27.614;2022-08-30T10:12:15;9.88;;;9.48;;
34737;SDS011;39910;47.154;27.614;2022-08-30T10:23:08;10.20;;;9.80;;
34737;SDS011;39910;47.154;27.614;2022-08-30T10:25:42;10.10;;;9.70;;
34737;SDS011;39910;47.154;27.614;2022-08-30T10:28:28;10.05;;;9.65;;
34737;SDS011;39910;47.154;27.614;2022-08-30T10:31:01;10.20;;;9.80;;
34737;SDS011;39910;47.154;27.614;2022-08-30T10:33:35;10.15;;;9.75;;
34737;SDS011;39910;47.154;27.614;2022-08-30T10:36:13;10.00;;;9.60;;
34737;SDS011;39910;47.154;27.614;2022-08-30T10:38:47;10.13;;;9.73;;
34737;SDS011;39910;47.154;27.614;2022-08-30T10:49:45;9.90;;;9.50;;
34737;SDS011;39910;47.154;27.614;2022-08-30T10:55:05;9.90;;;9.50;;
34737;SDS011;39910;47.154;27.614;2022-08-30T10:57:32;9.90;;;9.50;;
34737;SDS011;39910;47.154;27.614;2022-08-30T11:00:04;9.82;;;9.43;;
34737;SDS011;39910;47.154;27.614;2022-08-30T11:13:25;9.82;;;9.43;;
34737;SDS011;39910;47.154;27.614;2022-08-30T11:18:22;9.93;;;9.52;;
34737;SDS011;39910;47.154;27.614;2022-08-30T11:20:50;10.10;;;9.70;;
34737;SDS011;39910;47.154;27.614;2022-08-30T11:33:53;10.02;;;9.63;;
34737;SDS011;39910;47.154;27.614;2022-08-30T11:41:46;10.13;;;9.73;;
34737;SDS011;39910;47.154;27.614;2022-08-30T11:44:33;10.30;;;9.90;;
34737;SDS011;39910;47.154;27.614;2022-08-30T11:46:59;10.00;;;9.60;;
34737;SDS011;39910;47.154;27.614;2022-08-30T11:52:14;10.10;;;9.70;;
34737;SDS011;39910;47.154;27.614;2022-08-30T12:00:26;10.10;;;9.70;;
34737;SDS011;39910;47.154;27.614;2022-08-30T12:11:03;10.02;;;9.63;;
34737;SDS011;39910;47.154;27.614;2022-08-30T12:16:20;10.60;;;10.10;;
34737;SDS011;39910;47.154;27.614;2022-08-30T12:18:49;10.23;;;9.82;;
34737;SDS011;39910;47.154;27.614;2022-08-30T12:26:33;9.77;;;9.38;;
34737;SDS011;39910;47.154;27.614;2022-08-30T12:37:30;10.50;;;10.00;;
34737;SDS011;39910;47.154;27.614;2022-08-30T12:40:10;10.50;;;10.00;;
34737;SDS011;39910;47.154;27.614;2022-08-30T12:42:53;10.75;;;10.25;;
34737;SDS011;39910;47.154;27.614;2022-08-30T12:45:24;10.55;;;10.05;;
34737;SDS011;39910;47.154;27.614;2022-08-30T12:50:21;10.32;;;9.88;;
34737;SDS011;39910;47.154;27.614;2022-08-30T12:53:00;10.95;;;10.45;;
34737;SDS011;39910;47.154;27.614;2022-08-30T12:55:32;10.00;;;9.60;;
34737;SDS011;39910;47.154;27.614;2022-08-30T12:58:01;9.85;;;9.45;;
34737;SDS011;39910;47.154;27.614;2022-08-30T13:00:38;10.30;;;9.90;;
34737;SDS011;39910;47.154;27.614;2022-08-30T13:03:24;9.98;;;9.57;;
34737;SDS011;39910;47.154;27.614;2022-08-30T13:05:53;10.10;;;9.70;;
34737;SDS011;39910;47.154;27.614;2022-08-30T13:10:50;10.10;;;9.70;;
34737;SDS011;39910;47.154;27.614;2022-08-30T13:18:36;10.30;;;9.90;;
34737;SDS011;39910;47.154;27.614;2022-08-30T13:21:35;10.30;;;9.90;;
34737;SDS011;39910;47.154;27.614;2022-08-30T13:24:00;10.25;;;9.82;;
34737;SDS011;39910;47.154;27.614;2022-08-30T13:26:31;10.00;;;9.60;;
34737;SDS011;39910;47.154;27.614;2022-08-30T13:29:00;10.20;;;9.80;;
34737;SDS011;39910;47.154;27.614;2022-08-30T13:31:28;10.50;;;10.00;;
34737;SDS011;39910;47.154;27.614;2022-08-30T13:33:54;9.95;;;9.55;;
34737;SDS011;39910;47.154;27.614;2022-08-30T13:36:28;9.98;;;9.57;;
34737;SDS011;39910;47.154;27.614;2022-08-30T13:38:55;10.02;;;9.63;;
34737;SDS011;39910;47.154;27.614;2022-08-30T13:41:22;10.30;;;9.88;;
34737;SDS011;39910;47.154;27.614;2022-08-30T13:43:49;10.30;;;9.90;;
34737;SDS011;39910;47.154;27.614;2022-08-30T13:46:14;10.00;;;9.60;;
34737;SDS011;39910;47.154;27.614;2022-08-30T13:48:41;9.82;;;9.43;;
34737;SDS011;39910;47.154;27.614;2022-08-30T13:51:07;10.30;;;9.90;;
34737;SDS011;39910;47.154;27.614;2022-08-30T13:53:33;10.25;;;9.82;;
34737;SDS011;39910;47.154;27.614;2022-08-30T13:55:59;10.45;;;9.95;;
34737;SDS011;39910;47.154;27.614;2022-08-30T13:58:26;10.05;;;9.65;;
34737;SDS011;39910;47.154;27.614;2022-08-30T14:00:52;10.70;;;10.20;;
34737;SDS011;39910;47.154;27.614;2022-08-30T14:03:17;10.70;;;10.20;;
34737;SDS011;39910;47.154;27.614;2022-08-30T14:05:43;10.13;;;9.73;;
34737;SDS011;39910;47.154;27.614;2022-08-30T14:08:09;9.98;;;9.57;;
34737;SDS011;39910;47.154;27.614;2022-08-30T14:10:37;10.20;;;9.80;;
34737;SDS011;39910;47.154;27.614;2022-08-30T14:13:03;9.93;;;9.52;;
34737;SDS011;39910;47.154;27.614;2022-08-30T14:15:29;10.20;;;9.80;;
34737;SDS011;39910;47.154;27.614;2022-08-30T14:17:56;10.70;;;10.20;;
34737;SDS011;39910;47.154;27.614;2022-08-30T14:20:21;10.00;;;9.60;;
34737;SDS011;39910;47.154;27.614;2022-08-30T14:22:47;10.20;;;9.80;;
34737;SDS011;39910;47.154;27.614;2022-08-30T14:25:13;10.13;;;9.73;;
34737;SDS011;39910;47.154;27.614;2022-08-30T14:27:38;10.63;;;10.02;;
34737;SDS011;39910;47.154;27.614;2022-08-30T14:30:04;10.90;;;10.40;;
34737;SDS011;39910;47.154;27.614;2022-08-30T14:32:31;10.13;;;9.73;;
34737;SDS011;39910;47.154;27.614;2022-08-30T14:34:56;11.18;;;10.68;;
34737;SDS011;39910;47.154;27.614;2022-08-30T14:37:22;10.23;;;9.82;;
34737;SDS011;39910;47.154;27.614;2022-08-30T14:39:47;10.20;;;9.80;;
34737;SDS011;39910;47.154;27.614;2022-08-30T14:42:13;10.00;;;9.60;;
34737;SDS011;39910;47.154;27.614;2022-08-30T14:44:39;10.73;;;10.23;;
34737;SDS011;39910;47.154;27.614;2022-08-30T14:47:04;10.05;;;9.65;;
34737;SDS011;39910;47.154;27.614;2022-08-30T14:49:32;10.10;;;9.70;;
34737;SDS011;39910;47.154;27.614;2022-08-30T14:51:58;10.40;;;9.90;;
34737;SDS011;39910;47.154;27.614;2022-08-30T14:54:24;11.00;;;10.50;;
34737;SDS011;39910;47.154;27.614;2022-08-30T14:56:51;10.50;;;10.00;;
34737;SDS011;39910;47.154;27.614;2022-08-30T14:59:18;10.52;;;10.02;;
34737;SDS011;39910;47.154;27.614;2022-08-30T15:01:43;10.50;;;10.00;;
34737;SDS011;39910;47.154;27.614;2022-08-30T15:04:10;10.55;;;10.05;;
34737;SDS011;39910;47.154;27.614;2022-08-30T15:06:37;10.50;;;10.00;;
34737;SDS011;39910;47.154;27.614;2022-08-30T15:09:05;10.93;;;10.43;;
34737;SDS011;39910;47.154;27.614;2022-08-30T15:11:32;10.20;;;9.80;;
34737;SDS011;39910;47.154;27.614;2022-08-30T15:13:57;10.73;;;10.23;;
34737;SDS011;39910;47.154;27.614;2022-08-30T15:16:28;10.25;;;9.85;;
34737;SDS011;39910;47.154;27.614;2022-08-30T15:18:56;10.85;;;10.35;;
34737;SDS011;39910;47.154;27.614;2022-08-30T15:21:42;10.48;;;9.98;;
34737;SDS011;39910;47.154;27.614;2022-08-30T15:24:10;10.52;;;10.02;;
34737;SDS011;39910;47.154;27.614;2022-08-30T15:26:37;10.85;;;10.35;;
34737;SDS011;39910;47.154;27.614;2022-08-30T15:29:07;10.52;;;10.02;;
34737;SDS011;39910;47.154;27.614;2022-08-30T15:31:34;10.23;;;9.82;;
34737;SDS011;39910;47.154;27.614;2022-08-30T15:34:00;10.80;;;10.30;;
34737;SDS011;39910;47.154;27.614;2022-08-30T15:36:26;10.63;;;10.13;;
34737;SDS011;39910;47.154;27.614;2022-08-30T15:38:53;10.40;;;9.90;;
34737;SDS011;39910;47.154;27.614;2022-08-30T15:41:20;10.50;;;10.00;;
34737;SDS011;39910;47.154;27.614;2022-08-30T15:43:47;10.50;;;10.00;;
34737;SDS011;39910;47.154;27.614;2022-08-30T15:48:41;10.45;;;9.95;;
34737;SDS011;39910;47.154;27.614;2022-08-30T15:51:07;10.40;;;9.93;;
34737;SDS011;39910;47.154;27.614;2022-08-30T15:53:32;10.90;;;10.40;;
34737;SDS011;39910;47.154;27.614;2022-08-30T15:55:58;10.50;;;10.00;;
34737;SDS011;39910;47.154;27.614;2022-08-30T15:58:25;10.70;;;10.20;;
34737;SDS011;39910;47.154;27.614;2022-08-30T16:00:51;10.38;;;9.88;;
34737;SDS011;39910;47.154;27.614;2022-08-30T16:03:16;10.75;;;10.25;;
34737;SDS011;39910;47.154;27.614;2022-08-30T16:05:42;10.13;;;9.73;;
34737;SDS011;39910;47.154;27.614;2022-08-30T16:08:07;10.52;;;10.02;;
34737;SDS011;39910;47.154;27.614;2022-08-30T16:10:33;11.10;;;10.60;;
34737;SDS011;39910;47.154;27.614;2022-08-30T16:12:59;10.10;;;9.70;;
34737;SDS011;39910;47.154;27.614;2022-08-30T16:15:26;10.82;;;10.32;;
34737;SDS011;39910;47.154;27.614;2022-08-30T16:17:51;10.25;;;9.85;;
34737;SDS011;39910;47.154;27.614;2022-08-30T16:20:17;10.27;;;9.88;;
34737;SDS011;39910;47.154;27.614;2022-08-30T16:22:43;10.45;;;9.95;;
34737;SDS011;39910;47.154;27.614;2022-08-30T16:25:08;10.90;;;10.40;;
34737;SDS011;39910;47.154;27.614;2022-08-30T16:27:34;9.98;;;9.57;;
34737;SDS011;39910;47.154;27.614;2022-08-30T16:30:03;10.57;;;10.07;;
34737;SDS011;39910;47.154;27.614;2022-08-30T16:32:29;10.18;;;9.77;;
34737;SDS011;39910;47.154;27.614;2022-08-30T16:34:54;10.13;;;9.73;;
34737;SDS011;39910;47.154;27.614;2022-08-30T16:37:20;10.60;;;10.10;;